Time;durP1;ratioP1;P1;durP2;ratioP2;P2;SDS_P1;SDS_P2;PMS_P1;PMS_P2;Temp;Humidity;BMP_temperature;BMP_pressure;BME280_temperature;BME280_humidity;BME280_pressure;Samples;Min_cycle;Max_cycle;Signal;HPM_P1;HPM_P2
2022/06/09 00:01:57;;;;;;;18.20;6.43;;;14.60;99.90;;;;;;4860124;29;20047;-80
2022/06/09 00:04:36;;;;;;;20.50;6.25;;;14.60;99.90;;;;;;4838274;29;1160006;-80
2022/06/09 00:07:10;;;;;;;24.98;6.32;;;14.60;99.90;;;;;;4879371;29;20106;-80
2022/06/09 00:09:49;;;;;;;18.83;6.45;;;14.60;99.90;;;;;;4895432;29;20373;-80
2022/06/09 00:12:15;;;;;;;18.33;6.47;;;14.60;99.90;;;;;;4894794;29;20095;-80
2022/06/09 00:14:41;;;;;;;23.25;6.75;;;14.50;99.90;;;;;;4879577;29;20032;-81
2022/06/09 00:17:07;;;;;;;22.95;6.35;;;14.40;99.90;;;;;;4864027;29;20068;-79
2022/06/09 00:19:33;;;;;;;21.92;6.13;;;14.40;99.90;;;;;;4863988;29;20452;-80
2022/06/09 00:21:59;;;;;;;23.73;6.55;;;14.40;99.90;;;;;;4878275;29;20050;-80
2022/06/09 00:24:25;;;;;;;19.00;6.25;;;14.40;99.90;;;;;;4862692;29;20047;-80
2022/06/09 00:26:51;;;;;;;19.92;6.15;;;14.40;99.90;;;;;;4877423;29;20516;-80
2022/06/09 00:29:17;;;;;;;15.32;6.15;;;14.30;99.90;;;;;;4879654;29;20040;-80
2022/06/09 00:31:43;;;;;;;23.45;6.30;;;14.30;99.90;;;;;;4881515;29;20065;-80
2022/06/09 00:34:10;;;;;;;25.00;6.40;;;14.20;99.90;;;;;;4866671;29;20181;-80
2022/06/09 00:36:36;;;;;;;15.70;5.88;;;14.20;99.90;;;;;;4882022;29;20044;-79
2022/06/09 00:39:03;;;;;;;20.27;6.30;;;14.20;99.90;;;;;;4882177;29;20042;-80
2022/06/09 00:41:29;;;;;;;19.52;6.10;;;14.20;99.90;;;;;;4867676;29;20132;-80
2022/06/09 00:44:14;;;;;;;20.95;6.32;;;14.10;99.90;;;;;;4897422;29;20044;-80
2022/06/09 00:46:40;;;;;;;15.60;4.97;;;14.10;99.90;;;;;;4898238;29;20075;-81
2022/06/09 00:49:18;;;;;;;16.92;5.82;;;14.10;99.90;;;;;;4865544;29;20044;-80
2022/06/09 00:51:47;;;;;;;20.77;5.88;;;14.10;99.90;;;;;;4881912;29;20051;-80
2022/06/09 00:54:27;;;;;;;17.75;6.15;;;14.00;99.90;;;;;;4881801;29;20465;-80
2022/06/09 00:56:57;;;;;;;18.35;5.55;;;14.00;99.90;;;;;;4882598;29;20052;-80
2022/06/09 00:59:26;;;;;;;19.83;5.82;;;14.00;99.90;;;;;;4882569;29;20036;-80
2022/06/09 01:01:53;;;;;;;19.60;5.20;;;13.90;99.90;;;;;;4883366;29;20075;-80
2022/06/09 01:04:21;;;;;;;25.10;5.82;;;13.90;99.90;;;;;;4896899;29;20052;-80
2022/06/09 01:06:52;;;;;;;19.17;5.47;;;13.90;99.90;;;;;;4883210;29;20048;-80
2022/06/09 01:09:24;;;;;;;16.25;4.90;;;13.90;99.90;;;;;;4882328;29;20058;-80
2022/06/09 01:11:52;;;;;;;20.08;5.68;;;13.90;99.90;;;;;;4882096;29;20073;-80
2022/06/09 01:14:21;;;;;;;23.73;5.45;;;13.80;99.90;;;;;;4900407;29;20047;-80
2022/06/09 01:17:02;;;;;;;19.90;5.35;;;13.80;99.90;;;;;;4882190;29;20054;-81
2022/06/09 01:20:00;;;;;;;20.50;5.53;;;13.80;99.90;;;;;;4882833;29;20036;-80
2022/06/09 01:22:44;;;;;;;19.13;5.60;;;13.70;99.90;;;;;;4881379;29;20090;-80
2022/06/09 01:25:29;;;;;;;19.45;4.90;;;13.70;99.90;;;;;;4897144;29;20048;-80
2022/06/09 01:28:10;;;;;;;20.67;6.00;;;13.70;99.90;;;;;;4880788;29;20043;-80
2022/06/09 01:31:04;;;;;;;23.92;5.88;;;13.70;99.90;;;;;;4881258;29;20036;-79
2022/06/09 01:33:41;;;;;;;20.48;5.68;;;13.60;99.90;;;;;;4897454;29;20405;-80
2022/06/09 01:36:23;;;;;;;20.55;5.35;;;13.60;99.90;;;;;;4881221;29;20192;-81
2022/06/09 01:38:56;;;;;;;26.00;5.68;;;13.60;99.90;;;;;;4881226;29;20176;-79
2022/06/09 01:41:24;;;;;;;29.65;6.10;;;13.60;99.90;;;;;;4880801;29;20044;-80
2022/06/09 01:43:52;;;;;;;18.60;5.90;;;13.50;99.90;;;;;;4882573;29;20036;-80
2022/06/09 01:46:24;;;;;;;22.83;5.97;;;13.60;99.90;;;;;;4866303;29;20040;-80
2022/06/09 01:48:53;;;;;;;16.55;6.03;;;13.60;99.90;;;;;;4896643;29;20103;-80
2022/06/09 01:51:22;;;;;;;21.63;5.50;;;13.50;99.90;;;;;;4896432;29;20155;-80
2022/06/09 01:54:00;;;;;;;18.13;6.20;;;13.50;99.90;;;;;;4880359;29;20043;-80
2022/06/09 01:56:43;;;;;;;21.17;6.25;;;13.40;99.90;;;;;;4880604;29;20103;-80
2022/06/09 01:59:28;;;;;;;18.30;6.65;;;13.40;99.90;;;;;;4881304;29;20060;-80
2022/06/09 02:02:02;;;;;;;22.17;7.45;;;13.40;99.90;;;;;;4880023;29;20431;-80
2022/06/09 02:04:43;;;;;;;19.35;7.00;;;13.40;99.90;;;;;;4896479;29;20632;-80
2022/06/09 02:07:10;;;;;;;24.25;8.00;;;13.40;99.90;;;;;;4879489;29;20055;-80
2022/06/09 02:09:39;;;;;;;20.88;6.72;;;13.40;99.90;;;;;;4879610;29;20043;-81
2022/06/09 02:12:10;;;;;;;22.92;7.78;;;13.30;99.90;;;;;;4880447;29;20131;-80
2022/06/09 02:14:37;;;;;;;26.88;7.78;;;13.30;99.90;;;;;;4881771;29;20127;-80
2022/06/09 02:17:08;;;;;;;21.25;8.15;;;13.30;99.90;;;;;;4881060;29;20048;-80
2022/06/09 02:19:36;;;;;;;24.00;8.02;;;13.40;99.90;;;;;;4882108;29;20120;-80
2022/06/09 02:22:08;;;;;;;23.58;8.02;;;13.30;99.90;;;;;;4880107;29;20052;-81
2022/06/09 02:24:33;;;;;;;32.13;8.63;;;13.30;99.90;;;;;;4880043;29;20079;-80
2022/06/09 02:27:00;;;;;;;21.58;7.75;;;13.40;99.90;;;;;;4865106;29;20083;-80
2022/06/09 02:29:26;;;;;;;24.95;9.00;;;13.30;99.90;;;;;;4864287;29;20392;-80
2022/06/09 02:31:52;;;;;;;26.42;8.05;;;13.30;99.90;;;;;;4879910;29;20080;-80
2022/06/09 02:34:18;;;;;;;26.77;9.05;;;13.30;99.90;;;;;;4849750;29;20094;-80
2022/06/09 02:36:44;;;;;;;28.60;9.10;;;13.30;99.90;;;;;;4895908;29;20048;-80
2022/06/09 02:39:10;;;;;;;23.30;8.10;;;13.30;99.90;;;;;;4879414;29;20503;-80
2022/06/09 02:41:36;;;;;;;24.73;8.45;;;13.30;99.90;;;;;;4865599;29;20111;-80
2022/06/09 02:44:03;;;;;;;19.90;8.23;;;13.30;99.90;;;;;;4880295;29;20106;-80
2022/06/09 02:46:30;;;;;;;27.13;8.38;;;13.30;99.90;;;;;;4881062;29;20048;-80
2022/06/09 02:48:57;;;;;;;26.60;8.07;;;13.40;99.90;;;;;;4863598;29;20556;-80
2022/06/09 02:51:27;;;;;;;19.55;8.07;;;13.30;99.90;;;;;;4879841;29;20043;-80
2022/06/09 02:53:54;;;;;;;35.53;8.65;;;13.30;99.90;;;;;;4880459;29;20544;-80
2022/06/09 02:56:20;;;;;;;24.58;7.70;;;13.40;99.90;;;;;;4864694;29;20051;-80
2022/06/09 02:58:46;;;;;;;34.40;9.30;;;13.30;99.90;;;;;;4880482;29;20043;-81
2022/06/09 03:01:12;;;;;;;35.45;9.30;;;13.30;99.90;;;;;;4848396;29;20032;-80
2022/06/09 03:03:38;;;;;;;21.50;8.10;;;13.30;99.90;;;;;;4846424;29;20488;-80
2022/06/09 03:06:04;;;;;;;25.20;7.95;;;13.30;99.90;;;;;;4880258;29;20150;-80
2022/06/09 03:08:30;;;;;;;23.00;8.27;;;13.30;99.90;;;;;;4864555;29;20051;-80
2022/06/09 03:10:56;;;;;;;26.35;8.50;;;13.30;99.90;;;;;;4848091;29;20515;-80
2022/06/09 03:13:21;;;;;;;30.42;8.90;;;13.30;99.90;;;;;;4880463;29;20040;-80
2022/06/09 03:15:48;;;;;;;27.63;8.98;;;13.30;99.90;;;;;;4879817;29;20482;-80
2022/06/09 03:18:17;;;;;;;33.92;8.55;;;13.30;99.90;;;;;;4863626;29;20043;-80
2022/06/09 03:20:44;;;;;;;22.40;8.65;;;13.30;99.90;;;;;;4879134;29;20119;-80
2022/06/09 03:23:10;;;;;;;28.83;8.77;;;13.30;99.90;;;;;;4880555;29;20028;-80
2022/06/09 03:25:37;;;;;;;23.70;8.80;;;13.30;99.90;;;;;;4895710;29;21433;-80
2022/06/09 03:28:04;;;;;;;23.98;8.77;;;13.30;99.90;;;;;;4879822;29;20226;-80
2022/06/09 03:30:30;;;;;;;21.02;8.45;;;13.20;99.90;;;;;;4863655;29;20046;-80
2022/06/09 03:32:56;;;;;;;25.48;8.65;;;13.20;99.90;;;;;;4894867;29;20449;-80
2022/06/09 03:35:22;;;;;;;20.15;7.80;;;13.20;99.90;;;;;;4849621;29;20108;-80
2022/06/09 03:37:47;;;;;;;28.10;8.75;;;13.20;99.90;;;;;;4865350;29;20477;-80
2022/06/09 03:40:16;;;;;;;18.08;7.70;;;13.20;99.90;;;;;;4864946;29;20071;-80
2022/06/09 03:42:41;;;;;;;26.95;7.78;;;13.20;99.90;;;;;;4881395;29;20177;-80
2022/06/09 03:45:08;;;;;;;26.77;8.82;;;13.20;99.90;;;;;;4849706;29;20060;-80
2022/06/09 03:47:34;;;;;;;28.05;8.77;;;13.20;99.90;;;;;;4865878;29;20111;-80
2022/06/09 03:50:00;;;;;;;22.40;8.57;;;13.20;99.90;;;;;;4863724;29;20136;-80
2022/06/09 03:52:26;;;;;;;23.60;8.63;;;13.20;99.90;;;;;;4865420;29;20032;-80
2022/06/09 03:54:52;;;;;;;21.88;8.40;;;13.30;99.90;;;;;;4862819;29;20043;-80
2022/06/09 03:57:18;;;;;;;22.75;7.97;;;13.20;99.90;;;;;;4864512;29;20042;-81
2022/06/09 03:59:44;;;;;;;26.30;8.35;;;13.20;99.90;;;;;;4865809;29;20095;-80
2022/06/09 04:02:11;;;;;;;21.80;7.40;;;13.30;99.90;;;;;;4863521;29;20044;-80
2022/06/09 04:04:37;;;;;;;20.30;8.10;;;13.30;99.90;;;;;;4865980;29;20048;-81
2022/06/09 04:07:03;;;;;;;21.40;7.93;;;13.30;99.90;;;;;;4897583;29;20044;-80
2022/06/09 04:09:29;;;;;;;21.60;7.97;;;13.30;99.90;;;;;;4867693;29;20107;-80
2022/06/09 04:11:54;;;;;;;18.35;7.28;;;13.30;99.90;;;;;;4865789;29;20044;-80
2022/06/09 04:14:20;;;;;;;22.50;7.55;;;13.30;99.90;;;;;;4894669;29;20084;-80
2022/06/09 04:16:46;;;;;;;16.55;6.97;;;13.30;99.90;;;;;;4875734;29;20052;-80
2022/06/09 04:19:15;;;;;;;20.00;7.38;;;13.30;99.90;;;;;;4854494;29;20044;-79
2022/06/09 04:21:42;;;;;;;19.98;7.53;;;13.30;99.90;;;;;;4878708;29;20417;-80
2022/06/09 04:24:08;;;;;;;21.48;7.30;;;13.30;99.90;;;;;;4863911;29;20179;-80
2022/06/09 04:26:37;;;;;;;16.25;7.05;;;13.30;99.90;;;;;;4880382;29;20055;-80
2022/06/09 04:29:06;;;;;;;18.33;7.13;;;13.30;99.90;;;;;;4878388;29;20079;-80
2022/06/09 04:31:33;;;;;;;20.05;6.80;;;13.30;99.90;;;;;;4878854;29;20059;-80
2022/06/09 04:33:59;;;;;;;17.85;6.60;;;13.30;99.90;;;;;;4879192;29;20052;-80
2022/06/09 04:36:24;;;;;;;16.48;7.78;;;13.30;99.90;;;;;;4863789;29;20107;-80
2022/06/09 04:38:51;;;;;;;18.33;7.05;;;13.30;99.90;;;;;;4863424;29;20044;-80
2022/06/09 04:41:17;;;;;;;13.88;6.30;;;13.30;99.90;;;;;;4863642;29;20131;-80
2022/06/09 04:43:46;;;;;;;16.92;6.63;;;13.30;99.90;;;;;;4863768;29;20077;-81
2022/06/09 04:46:15;;;;;;;21.88;6.80;;;13.30;99.90;;;;;;4896027;29;20051;-80
2022/06/09 04:48:41;;;;;;;14.95;6.35;;;13.40;99.90;;;;;;4878574;29;20048;-81
2022/06/09 04:51:09;;;;;;;15.90;6.45;;;13.40;99.90;;;;;;4849330;29;20063;-80
2022/06/09 04:53:36;;;;;;;15.45;6.70;;;13.40;99.90;;;;;;4895749;29;20055;-80
2022/06/09 04:56:03;;;;;;;15.48;6.95;;;13.40;99.90;;;;;;4894790;29;20050;-80
2022/06/09 04:58:29;;;;;;;16.55;6.60;;;13.50;99.90;;;;;;4879969;29;20509;-80
2022/06/09 05:00:55;;;;;;;13.10;6.18;;;13.50;99.90;;;;;;4849801;29;20067;-80
2022/06/09 05:03:21;;;;;;;15.50;6.28;;;13.60;99.90;;;;;;4895427;29;20036;-80
2022/06/09 05:05:48;;;;;;;14.88;6.45;;;13.60;99.90;;;;;;4879415;29;20059;-80
2022/06/09 05:08:15;;;;;;;15.10;6.05;;;13.70;99.90;;;;;;4894290;29;20139;-80
2022/06/09 05:10:43;;;;;;;11.40;6.28;;;13.70;99.90;;;;;;4878306;29;20524;-81
2022/06/09 05:13:10;;;;;;;16.05;6.25;;;13.80;99.90;;;;;;4896276;29;20536;-80
2022/06/09 05:15:43;;;;;;;13.57;6.13;;;13.80;99.90;;;;;;4878661;29;20055;-80
2022/06/09 05:18:11;;;;;;;11.93;5.45;;;13.90;99.90;;;;;;4899391;29;20063;-80
2022/06/09 05:20:37;;;;;;;12.98;6.05;;;13.90;99.90;;;;;;4852165;29;20052;-80
2022/06/09 05:23:03;;;;;;;11.30;4.80;;;14.00;99.90;;;;;;4897205;29;20068;-80
2022/06/09 05:25:28;;;;;;;9.15;5.20;;;14.10;99.90;;;;;;4864957;29;20043;-81
2022/06/09 05:27:54;;;;;;;10.63;5.10;;;14.20;99.90;;;;;;4867285;29;20051;-80
2022/06/09 05:30:24;;;;;;;16.58;5.60;;;14.20;99.90;;;;;;4867533;29;20050;-81
2022/06/09 05:32:50;;;;;;;8.35;4.88;;;14.30;99.90;;;;;;4896524;29;20044;-80
2022/06/09 05:35:17;;;;;;;14.82;5.00;;;14.40;99.90;;;;;;4868262;29;20048;-80
2022/06/09 05:45:58;;;;;;;7.53;4.73;;;14.60;99.90;;;;;;4884979;29;20055;-80
2022/06/09 05:48:25;;;;;;;8.80;5.35;;;14.60;99.90;;;;;;4897922;29;20044;-80
2022/06/09 05:50:52;;;;;;;10.88;5.15;;;14.60;99.90;;;;;;4883484;29;20047;-80
2022/06/09 05:53:18;;;;;;;9.65;4.88;;;14.70;99.90;;;;;;4882694;29;20036;-80
2022/06/09 05:55:44;;;;;;;9.40;5.50;;;14.70;99.90;;;;;;4882505;29;20036;-80
2022/06/09 05:58:10;;;;;;;8.50;4.63;;;14.80;99.90;;;;;;4868587;29;20059;-80
2022/06/09 06:00:36;;;;;;;12.40;5.45;;;14.80;99.90;;;;;;4852206;29;20036;-80
2022/06/09 06:03:03;;;;;;;14.48;5.28;;;14.90;99.90;;;;;;4866514;29;20046;-80
2022/06/09 06:08:13;;;;;;;11.00;4.90;;;15.00;99.90;;;;;;4883057;29;20051;-80
2022/06/09 06:10:39;;;;;;;11.27;4.68;;;15.10;99.90;;;;;;4882461;29;20045;-81
2022/06/09 06:13:05;;;;;;;11.55;4.72;;;15.20;99.90;;;;;;4865761;29;20052;-80
2022/06/09 06:15:32;;;;;;;9.20;5.05;;;15.20;99.90;;;;;;4881536;29;20143;-81
2022/06/09 06:18:01;;;;;;;12.07;4.80;;;15.30;99.90;;;;;;4882938;29;20112;-80
2022/06/09 06:20:26;;;;;;;8.15;4.57;;;15.30;99.90;;;;;;4881639;29;20041;-80
2022/06/09 06:22:52;;;;;;;12.15;4.90;;;15.40;99.90;;;;;;4864452;29;20058;-81
2022/06/09 06:25:18;;;;;;;9.20;5.03;;;15.50;99.90;;;;;;4851576;29;20052;-81
2022/06/09 06:27:44;;;;;;;7.75;4.45;;;15.60;99.90;;;;;;4879640;29;20044;-80
2022/06/09 06:30:10;;;;;;;7.78;3.78;;;15.70;99.90;;;;;;4882333;29;20051;-80
2022/06/09 06:32:35;;;;;;;7.78;3.60;;;15.80;99.90;;;;;;4866451;29;20058;-79
2022/06/09 06:35:01;;;;;;;9.43;4.13;;;16.00;99.90;;;;;;4865864;29;20048;-79
2022/06/09 06:37:27;;;;;;;8.73;3.72;;;16.10;99.90;;;;;;4882990;29;20049;-79
2022/06/09 06:39:53;;;;;;;8.82;3.65;;;16.30;99.90;;;;;;4865761;29;20047;-79
2022/06/09 06:42:18;;;;;;;7.95;3.25;;;16.40;99.90;;;;;;4863446;29;20040;-80
2022/06/09 06:44:44;;;;;;;11.15;3.50;;;16.50;99.90;;;;;;4845276;29;20193;-81
2022/06/09 06:47:11;;;;;;;9.57;3.70;;;16.50;99.90;;;;;;4866730;29;20055;-78
2022/06/09 06:49:37;;;;;;;5.22;3.10;;;16.50;99.90;;;;;;4881344;29;20072;-79
2022/06/09 06:52:03;;;;;;;8.05;2.97;;;16.50;99.90;;;;;;4881471;29;20035;-78
2022/06/09 06:54:30;;;;;;;8.23;3.10;;;16.60;99.90;;;;;;4882726;29;20052;-79
2022/06/09 06:56:55;;;;;;;10.35;3.28;;;16.50;99.90;;;;;;4882028;29;20056;-79
2022/06/09 06:59:21;;;;;;;6.70;2.70;;;16.60;99.90;;;;;;4863952;29;20028;-79
2022/06/09 07:01:47;;;;;;;8.55;3.03;;;16.60;99.90;;;;;;4865633;29;20036;-79
2022/06/09 07:04:13;;;;;;;6.03;2.83;;;16.80;99.90;;;;;;4849918;29;20516;-78
2022/06/09 07:06:38;;;;;;;8.02;2.70;;;17.00;99.90;;;;;;4881391;29;20063;-79
2022/06/09 07:09:04;;;;;;;9.40;3.22;;;17.10;99.90;;;;;;4866606;29;20165;-79
2022/06/09 07:11:30;;;;;;;6.85;2.60;;;17.20;99.90;;;;;;4863912;29;20048;-79
2022/06/09 07:13:56;;;;;;;7.50;2.22;;;17.20;99.90;;;;;;4882116;29;20048;-79
2022/06/09 07:16:22;;;;;;;9.77;2.40;;;17.10;99.90;;;;;;4877670;29;21897;-80
2022/06/09 07:18:48;;;;;;;9.25;2.35;;;17.10;99.90;;;;;;4879437;29;20071;-81
2022/06/09 07:21:15;;;;;;;4.40;2.22;;;17.10;99.90;;;;;;4849288;29;20044;-80
2022/06/09 07:23:41;;;;;;;4.63;1.75;;;17.20;99.90;;;;;;4883005;29;20539;-80
2022/06/09 07:26:07;;;;;;;5.57;1.98;;;17.40;99.90;;;;;;4865544;29;20091;-80
2022/06/09 07:28:33;;;;;;;5.68;1.95;;;17.60;99.90;;;;;;4866507;29;20051;-80
2022/06/09 07:31:00;;;;;;;5.28;1.50;;;17.70;99.90;;;;;;4897331;29;20622;-80
2022/06/09 07:33:29;;;;;;;6.50;2.08;;;17.70;99.90;;;;;;4865226;29;20047;-80
2022/06/09 07:35:56;;;;;;;7.13;1.90;;;17.60;99.90;;;;;;4879381;29;20115;-80
2022/06/09 07:38:22;;;;;;;5.95;1.70;;;17.50;99.90;;;;;;4865546;29;20466;-80
2022/06/09 07:40:49;;;;;;;6.95;1.83;;;17.60;99.90;;;;;;4895722;29;20095;-80
2022/06/09 07:43:15;;;;;;;6.72;1.95;;;17.90;99.90;;;;;;4880239;29;20085;-80
2022/06/09 07:45:41;;;;;;;6.13;1.75;;;18.30;99.90;;;;;;4849280;29;20067;-80
2022/06/09 07:48:08;;;;;;;4.20;1.52;;;18.60;99.90;;;;;;4912421;29;20075;-80
2022/06/09 07:50:35;;;;;;;3.33;1.30;;;19.00;99.90;;;;;;4880052;29;20043;-80
2022/06/09 07:53:01;;;;;;;4.82;1.33;;;19.30;99.90;;;;;;4883952;29;20051;-81
2022/06/09 07:55:28;;;;;;;6.03;1.42;;;19.60;99.90;;;;;;4864204;29;20048;-80
2022/06/09 07:57:54;;;;;;;4.82;1.67;;;19.90;99.90;;;;;;4882907;29;20049;-81
2022/06/09 08:00:22;;;;;;;5.00;1.40;;;20.10;99.90;;;;;;4865698;29;20032;-81
2022/06/09 08:02:48;;;;;;;7.63;1.55;;;20.30;99.90;;;;;;4867860;29;20044;-81
2022/06/09 08:05:17;;;;;;;5.80;1.60;;;20.40;99.90;;;;;;4862800;29;20064;-80
2022/06/09 08:07:43;;;;;;;5.85;1.77;;;20.30;99.90;;;;;;4879454;29;20044;-80
2022/06/09 08:10:13;;;;;;;8.43;1.70;;;20.20;99.90;;;;;;4896070;29;20056;-80
2022/06/09 08:12:39;;;;;;;6.35;1.30;;;20.30;99.90;;;;;;4879279;29;20051;-80
2022/06/09 08:15:05;;;;;;;3.03;1.33;;;20.30;99.90;;;;;;4879443;29;20067;-80
2022/06/09 08:17:31;;;;;;;6.85;1.70;;;20.40;99.90;;;;;;4895333;29;20076;-81
2022/06/09 08:19:57;;;;;;;3.17;1.38;;;20.40;99.90;;;;;;4864697;29;20071;-81
2022/06/09 08:22:23;;;;;;;4.03;1.30;;;20.30;99.90;;;;;;4848456;29;20111;-81
2022/06/09 08:24:48;;;;;;;5.15;1.88;;;20.30;99.90;;;;;;4878471;29;20036;-80
2022/06/09 08:27:14;;;;;;;5.57;1.33;;;20.20;99.90;;;;;;4894618;29;20044;-80
2022/06/09 08:29:40;;;;;;;5.78;1.42;;;20.20;99.90;;;;;;4896396;29;20048;-81
2022/06/09 08:32:06;;;;;;;4.05;1.20;;;20.20;99.90;;;;;;4864521;29;20043;-81
2022/06/09 08:34:33;;;;;;;3.47;1.38;;;20.30;99.90;;;;;;4879930;29;20040;-82
2022/06/09 08:36:59;;;;;;;5.68;1.60;;;20.40;99.90;;;;;;4881147;29;20048;-81
2022/06/09 08:39:24;;;;;;;5.38;1.52;;;20.70;99.90;;;;;;4865381;29;20051;-79
2022/06/09 08:42:23;;;;;;;10.82;1.80;;;20.80;99.90;;;;;;4895563;29;20119;-79
2022/06/09 08:45:04;;;;;;;4.28;1.35;;;20.80;99.90;;;;;;4859205;29;20131;-80
2022/06/09 08:47:51;;;;;;;8.98;1.63;;;20.90;99.90;;;;;;4897277;29;20072;-80
2022/06/09 08:50:33;;;;;;;6.70;1.20;;;21.10;99.90;;;;;;4878381;29;20063;-81
2022/06/09 08:53:14;;;;;;;4.70;1.30;;;21.10;99.90;;;;;;4881226;29;20536;-80
2022/06/09 08:55:52;;;;;;;5.07;1.25;;;21.20;99.90;;;;;;4882207;29;20086;-80
2022/06/09 08:58:36;;;;;;;3.72;1.27;;;21.30;99.90;;;;;;4897141;29;20040;-80
2022/06/09 09:01:11;;;;;;;6.53;1.45;;;21.10;99.90;;;;;;4895036;29;20476;-80
2022/06/09 09:03:47;;;;;;;6.68;1.50;;;21.20;99.90;;;;;;4884449;29;20387;-80
2022/06/09 09:06:46;;;;;;;6.55;2.08;;;21.30;99.90;;;;;;4900511;29;20083;-79
2022/06/09 09:09:22;;;;;;;3.47;1.10;;;21.50;99.90;;;;;;4887357;29;20044;-80
2022/06/09 09:12:06;;;;;;;;;;;21.60;99.90;;;;;;4882457;29;20119;-79
2022/06/09 09:14:53;;;;;;;3.67;1.00;;;21.50;99.90;;;;;;4909869;29;19927;-78
2022/06/09 09:17:30;;;;;;;3.42;1.05;;;21.60;99.90;;;;;;4891956;29;20051;-78
2022/06/09 09:19:56;;;;;;;2.92;0.90;;;21.60;99.90;;;;;;4888277;29;20094;-79
2022/06/09 09:22:24;;;;;;;3.47;1.20;;;21.60;99.90;;;;;;4895783;29;20075;-79
2022/06/09 09:25:11;;;;;;;3.60;1.15;;;21.50;99.90;;;;;;4882532;29;20076;-79
2022/06/09 09:27:45;;;;;;;6.45;1.23;;;21.50;99.90;;;;;;4899459;29;20115;-78
2022/06/09 09:30:27;;;;;;;4.43;0.90;;;21.60;99.90;;;;;;4882713;29;20052;-78
2022/06/09 09:32:55;;;;;;;7.05;1.30;;;21.70;99.90;;;;;;4882750;29;20091;-78
2022/06/09 09:35:32;;;;;;;5.15;1.33;;;21.60;99.90;;;;;;4882266;29;20059;-78
2022/06/09 09:37:59;;;;;;;7.43;1.13;;;21.70;99.90;;;;;;4911125;29;20048;-79
2022/06/09 09:40:29;;;;;;;6.05;1.30;;;21.70;99.90;;;;;;4866022;29;20068;-79
2022/06/09 09:42:58;;;;;;;4.32;1.00;;;21.70;99.90;;;;;;4897918;29;20083;-79
2022/06/09 09:45:47;;;;;;;4.55;0.93;;;21.70;99.90;;;;;;4882150;29;20044;-79
2022/06/09 09:48:19;;;;;;;5.10;1.30;;;21.60;99.90;;;;;;4880987;29;20045;-79
2022/06/09 09:50:51;;;;;;;8.23;1.75;;;21.70;99.90;;;;;;4882089;29;20055;-79
2022/06/09 09:53:19;;;;;;;4.07;0.93;;;21.80;99.90;;;;;;4878786;29;20143;-80
2022/06/09 09:56:23;;;;;;;3.13;0.98;;;21.80;99.90;;;;;;4879502;29;20454;-82
2022/06/09 09:58:49;;;;;;;5.18;1.35;;;21.70;99.90;;;;;;4884615;29;20044;-81
2022/06/09 10:01:17;;;;;;;4.55;0.93;;;21.60;99.90;;;;;;4883003;29;20043;-78
2022/06/09 10:09:37;;;;;;;4.38;1.05;;;21.90;99.90;;;;;;4897778;29;20121;-79
2022/06/09 10:12:23;;;;;;;4.82;1.10;;;22.00;99.90;;;;;;4880800;29;21811;-79
2022/06/09 10:15:10;;;;;;;3.85;0.80;;;22.10;99.90;;;;;;4882162;29;20056;-80
2022/06/09 10:18:07;;;;;;;2.25;0.80;;;22.00;99.90;;;;;;4882015;29;20622;-79
2022/06/09 10:20:38;;;;;;;4.13;1.30;;;21.60;99.90;;;;;;4895830;29;20040;-79
2022/06/09 10:23:07;;;;;;;5.40;1.20;;;21.30;99.90;;;;;;4913938;29;20049;-79
2022/06/09 10:25:42;;;;;;;5.55;1.05;;;21.10;99.90;;;;;;4882182;29;20056;-80
2022/06/09 10:28:30;;;;;;;2.88;0.95;;;21.00;99.90;;;;;;4881836;29;20032;-80
2022/06/09 10:31:31;;;;;;;3.47;1.00;;;20.90;99.90;;;;;;4899894;29;20126;-80
2022/06/09 10:34:11;;;;;;;4.97;1.20;;;20.90;99.90;;;;;;4847354;29;20044;-80
2022/06/09 10:36:46;;;;;;;4.13;1.00;;;20.80;99.90;;;;;;4880361;29;20040;-80
2022/06/09 10:39:21;;;;;;;3.40;1.20;;;20.70;99.90;;;;;;4880579;29;20134;-79
2022/06/09 10:41:53;;;;;;;4.22;1.20;;;20.60;99.90;;;;;;4878353;29;20511;-79
2022/06/09 10:44:39;;;;;;;6.65;1.00;;;20.60;99.90;;;;;;4880241;29;20043;-79
2022/06/09 10:56:36;;;;;;;4.65;1.42;;;20.30;99.90;;;;;;4873744;29;20059;-79
2022/06/09 10:59:12;;;;;;;;;;;20.40;99.90;;;;;;4871721;29;20067;-79
2022/06/09 11:01:39;;;;;;;5.43;1.33;;;20.50;99.90;;;;;;4879604;29;20316;-79
2022/06/09 11:04:13;;;;;;;7.30;2.00;;;20.60;99.90;;;;;;4868490;29;20184;-79
2022/06/09 11:07:09;;;;;;;8.38;1.70;;;20.70;99.90;;;;;;4880233;29;20142;-80
2022/06/09 11:09:44;;;;;;;7.65;1.40;;;20.80;99.90;;;;;;4883772;29;20048;-78
2022/06/09 11:12:43;;;;;;;6.80;1.83;;;20.90;99.90;;;;;;4881787;29;20087;-80
2022/06/09 11:15:25;;;;;;;5.05;1.63;;;20.90;99.90;;;;;;4880071;29;20527;-79
2022/06/09 11:18:07;;;;;;;6.82;1.63;;;20.90;99.90;;;;;;4879630;29;20118;-79
2022/06/09 11:20:50;;;;;;;3.92;1.25;;;21.00;99.90;;;;;;4881973;29;20048;-80
2022/06/09 11:23:45;;;;;;;6.95;1.40;;;20.90;99.90;;;;;;4894309;29;20044;-79
2022/06/09 11:26:41;;;;;;;5.65;1.33;;;20.90;99.90;;;;;;4881586;29;20363;-79
2022/06/09 11:29:45;;;;;;;5.18;1.48;;;20.80;99.90;;;;;;4880583;29;20429;-79
2022/06/09 11:32:34;;;;;;;3.58;1.30;;;20.80;99.90;;;;;;4832352;29;20092;-79
2022/06/09 11:35:15;;;;;;;4.53;1.65;;;20.80;99.90;;;;;;4895269;29;20079;-79
2022/06/09 11:37:46;;;;;;;3.88;1.30;;;20.90;99.90;;;;;;4896307;29;20095;-79
2022/06/09 11:40:33;;;;;;;7.45;1.52;;;20.90;99.90;;;;;;4896182;29;20071;-79
2022/06/09 11:43:17;;;;;;;4.85;1.30;;;21.00;99.90;;;;;;4895929;29;20457;-80
2022/06/09 11:45:42;;;;;;;4.18;1.42;;;21.20;99.90;;;;;;4880216;29;20484;-79
2022/06/09 11:48:28;;;;;;;5.80;1.60;;;21.40;99.90;;;;;;4879662;29;20059;-80
2022/06/09 11:50:56;;;;;;;3.28;1.15;;;21.50;99.90;;;;;;4881301;29;20083;-79
2022/06/09 11:53:25;;;;;;;3.85;1.10;;;21.40;99.90;;;;;;4866446;29;20397;-79
2022/06/09 11:56:11;;;;;;;7.32;1.23;;;21.40;99.90;;;;;;4880306;29;20124;-79
2022/06/09 11:58:37;;;;;;;;;;;21.50;99.90;;;;;;4868347;29;20036;-79
2022/06/09 12:01:16;;;;;;;5.18;1.30;;;21.50;99.90;;;;;;4881327;29;20018;-79
2022/06/09 12:04:15;;;;;;;5.43;1.40;;;21.40;99.90;;;;;;4881076;29;20066;-79
2022/06/09 12:06:43;;;;;;;4.40;1.50;;;21.50;99.90;;;;;;4880136;29;20064;-79
2022/06/09 12:09:33;;;;;;;7.00;1.75;;;21.50;99.90;;;;;;4880352;29;20044;-79
2022/06/09 12:12:20;;;;;;;4.38;1.58;;;21.50;99.90;;;;;;4881512;29;20457;-79
2022/06/09 12:14:46;;;;;;;9.65;2.17;;;21.50;99.90;;;;;;4896207;29;20433;-80
2022/06/09 12:17:30;;;;;;;7.55;1.40;;;21.40;99.90;;;;;;4864966;29;20138;-79
2022/06/09 12:19:59;;;;;;;8.50;1.60;;;21.50;99.90;;;;;;4880342;29;20051;-80
2022/06/09 12:22:39;;;;;;;5.63;1.30;;;21.60;99.90;;;;;;4881852;29;20041;-79
2022/06/09 12:25:09;;;;;;;9.10;1.67;;;21.90;99.90;;;;;;4895310;29;20040;-79
2022/06/09 12:27:36;;;;;;;7.53;2.00;;;22.10;99.90;;;;;;4899685;29;20471;-79
2022/06/09 12:30:02;;;;;;;5.82;1.65;;;22.30;99.90;;;;;;4885571;29;20497;-79
2022/06/09 12:32:42;;;;;;;9.18;1.60;;;22.60;99.90;;;;;;4896813;29;20055;-79
2022/06/09 12:35:31;;;;;;;6.35;2.10;;;22.90;99.90;;;;;;4897677;29;20401;-79
2022/06/09 12:38:26;;;;;;;4.97;1.48;;;23.30;99.90;;;;;;4888012;29;20052;-78
2022/06/09 12:41:01;;;;;;;4.80;1.27;;;23.60;99.90;;;;;;4898942;29;20462;-78
2022/06/09 12:43:42;;;;;;;6.22;1.40;;;24.00;99.90;;;;;;4871440;29;20032;-78
2022/06/09 12:46:25;;;;;;;6.03;1.52;;;24.40;98.40;;;;;;4894711;29;20051;-78
2022/06/09 12:48:53;;;;;;;5.72;1.70;;;24.50;96.60;;;;;;4893890;29;20396;-78
2022/06/09 12:51:32;;;;;;;6.00;1.30;;;24.40;95.40;;;;;;4856698;29;20040;-78
2022/06/09 12:54:07;;;;;;;6.70;1.30;;;24.60;94.80;;;;;;4877749;29;20046;-78
2022/06/09 12:56:33;;;;;;;5.78;1.67;;;24.80;92.60;;;;;;4876057;29;20041;-78
2022/06/09 12:59:23;;;;;;;5.97;1.48;;;25.00;92.20;;;;;;4877623;29;20098;-78
2022/06/09 13:01:58;;;;;;;5.60;1.65;;;25.10;91.30;;;;;;4897179;29;20050;-78
2022/06/09 13:04:26;;;;;;;6.43;1.52;;;25.30;90.50;;;;;;4915063;29;20040;-79
2022/06/09 13:06:54;;;;;;;6.20;1.45;;;25.30;91.70;;;;;;4883299;29;20461;-78
2022/06/09 13:09:23;;;;;;;6.93;1.65;;;25.20;89.70;;;;;;4897605;29;20044;-78
2022/06/09 13:14:42;;;;;;;8.35;1.92;;;25.40;86.70;;;;;;4896307;29;20048;-78
2022/06/09 13:17:21;;;;;;;7.10;1.63;;;25.30;86.90;;;;;;4868315;29;20056;-78
2022/06/09 13:20:05;;;;;;;6.88;1.85;;;25.00;82.30;;;;;;4884003;29;20058;-79
2022/06/09 13:22:32;;;;;;;6.07;1.50;;;25.10;82.50;;;;;;4882602;29;20055;-79
2022/06/09 13:24:59;;;;;;;6.95;1.50;;;24.90;82.30;;;;;;4882997;29;20072;-78
2022/06/09 13:27:29;;;;;;;4.90;1.70;;;25.00;82.50;;;;;;4852109;29;20123;-78
2022/06/09 13:30:03;;;;;;;5.32;1.65;;;25.00;81.60;;;;;;4880712;29;20044;-79
2022/06/09 13:32:39;;;;;;;4.72;1.17;;;25.20;83.80;;;;;;4882545;29;20047;-78
2022/06/09 13:35:33;;;;;;;6.15;1.48;;;25.40;78.30;;;;;;4879198;29;20055;-78